マドリード/バラハス の空港の天気 - METARとTAF

マドリード・バラハス国際空港 ( LEMD / MAD ) - スペイン マドリード
飛行場実況気象(Metar)
観測時間07/17 11:30 CEST (07/17 09:30 UTC)
風向・風速北 2m/s
視程10km以上
天気現象
なし
気温27℃
湿度37%
気圧1019hPa
METARLEMD 170930Z 36003KT CAVOK 27/11 Q1019 NOSIG
過去の天気等 Google飛行場航空写真 Wunderground天気予報

過去48時間のMETAR

飛行場予報(TAF)
発表時間: 7/17 08:58 CEST (7/17 06:58 UTC)
予報対象時間: 17日8時 CEST ~ 18日14時 CEST
風向・風速北 4m/s
視程10km以上
なし
17日10時 CEST ~ 17日12時 CEST に徐々に
風向・風速東 4m/s
17日13時 CEST ~ 17日21時 CEST に一時的に
風向・風速不定 3m/s
17日20時 CEST ~ 17日22時 CEST に徐々に
風向・風速北 4m/s
18日0時 CEST ~ 18日7時 CEST に 確率 40% で一時的に
風向・風速南東 3m/s 瞬間風速 8m/s
18日7時 CEST ~ 18日10時 CEST に一時的に
風向・風速不定 2m/s
18日10時 CEST ~ 18日12時 CEST に徐々に
風向・風速南西 6m/s
TAF AMD LEMD 170658Z 1706/1812 01008KT CAVOK TX35/1715Z TN17/1805Z
BECMG 1708/1710 08007KT
TEMPO 1711/1719 VRB05KT
BECMG 1718/1720 35008KT
PROB40 TEMPO 1722/1805 14006G16KT
TEMPO 1805/1808 VRB04KT
BECMG 1808/1810 22011KT